MST,Max TemperatureF,Mean TemperatureF,Min TemperatureF,Max Dew PointF,MeanDew PointF,Min DewpointF,Max Humidity, Mean Humidity, Min Humidity, Max Sea Level PressureIn, Mean Sea Level PressureIn, Min Sea Level PressureIn, Max VisibilityMiles, Mean VisibilityMiles, Min VisibilityMiles, Max Wind SpeedMPH, Mean Wind SpeedMPH, Max Gust SpeedMPH,PrecipitationIn, CloudCover, Events, WindDirDegrees
2012-9-1,73,63,52,60,55,50,93,77,61,30.09,30.04,29.97,10,10,10,16,3,20,0.02,2,Rain,222
2012-9-2,76,65,53,56,53,51,93,70,46,30.10,30.06,30.00,10,10,10,17,4,21,0.01,4,Rain-Thunderstorm,49
2012-9-3,78,64,49,58,50,44,96,64,31,30.32,30.11,30.04,10,10,10,17,3,28,0.04,2,,50
2012-9-4,78,65,52,54,51,47,96,66,36,30.39,30.11,30.00,10,10,10,17,3,25,0.00,3,Thunderstorm,217
2012-9-5,79,63,47,51,48,43,93,62,31,30.10,30.02,29.97,10,10,10,14,2,21,0.00,2,,351
2012-9-6,80,65,50,53,49,46,86,58,30,30.04,29.98,29.93,10,10,10,16,5,21,0.00,1,,239
2012-9-7,73,64,54,58,54,50,86,74,61,30.11,30.03,29.96,10,10,6,10,4,17,0.00,3,,228
2012-9-8,76,62,48,52,43,37,83,54,25,30.12,30.06,30.02,10,10,10,16,5,24,0.00,1,,75
2012-9-9,77,59,41,52,45,37,83,57,31,30.13,30.08,30.04,10,10,10,14,4,20,0.00,3,,145
2012-9-10,74,63,51,55,51,48,93,69,44,30.35,30.04,29.99,10,10,10,22,6,29,0.00,3,,215
2012-9-11,59,55,50,54,53,48,100,89,77,30.27,30.14,29.97,10,8,2,16,7,22,0.19,8,Rain,218
2012-9-12,69,59,49,54,50,44,100,73,45,30.27,30.12,29.99,10,9,1,16,3,23,0.00,4,Thunderstorm,189
2012-9-13,70,61,51,47,42,38,66,49,31,30.23,30.16,30.06,10,10,10,23,14,35,0.00,1,,52
2012-9-14,68,55,42,41,35,32,71,50,28,30.29,30.24,30.18,10,10,10,20,8,30,0.00,0,,52
2012-9-15,75,55,34,35,30,24,82,49,16,30.27,30.21,30.16,10,10,10,16,3,23,0.00,0,,52
2012-9-16,76,57,38,38,30,27,76,47,17,30.19,30.12,30.06,10,10,10,18,4,24,0.00,0,,230
2012-9-17,74,56,38,37,30,24,82,49,16,30.10,30.06,30.02,10,10,10,15,3,22,0.00,0,,252
2012-9-18,78,58,37,35,29,24,76,46,15,30.17,30.11,30.07,10,10,10,14,3,18,0.00,0,,243
2012-9-19,77,58,38,35,29,27,70,44,17,30.18,30.11,30.07,10,10,10,17,4,23,0.00,0,,221
2012-9-20,79,60,41,36,31,28,62,40,17,30.14,30.08,30.02,10,10,10,14,2,20,0.00,3,,215
2012-9-21,79,60,40,35,29,26,65,40,15,30.12,30.05,30.00,10,10,10,15,2,24,0.00,1,,100
2012-9-22,79,60,41,37,31,25,65,40,15,30.13,30.09,30.05,10,10,7,17,4,25,0.00,2,,199
2012-9-23,77,61,44,40,35,30,65,42,18,30.16,30.10,30.06,10,10,10,23,4,30,0.00,2,,228
2012-9-24,74,58,41,38,33,28,76,48,20,30.11,30.00,29.89,10,10,10,29,9,36,T,3,Rain,233
2012-9-25,72,57,42,34,30,27,58,39,19,29.94,29.88,29.83,10,10,10,29,9,35,0.00,0,,234
2012-9-26,71,53,35,33,30,25,70,45,20,30.03,29.97,29.91,10,10,10,18,4,25,0.00,1,,214
2012-9-27,72,54,35,37,32,29,76,50,23,30.11,30.05,30.01,10,10,10,10,2,15,0.00,2,,138
2012-9-28,73,54,35,36,31,29,76,49,22,30.07,30.03,29.98,10,10,10,16,3,20,0.00,1,,69
2012-9-29,73,55,37,41,33,29,76,49,22,30.14,30.09,30.04,10,10,10,15,2,20,T,3,,345
2012-9-30,75,55,35,34,25,15,76,44,11,30.19,30.12,30.08,10,10,10,20,4,26,0.00,0,,38